Terminal Aerodrome Forecast
Issued by NWS Corpus Christi, TX

Home | Current Version | Previous Version | Text Only | Print | Product List | Glossary On
Versions: 1 2 3 4 5 6 7 8 9 10 11 12 13 14 15 16 17 18 19 20 21 22
000
FTUS44 KCRP 291700
TAFCRP
TAF
KCRP 291726Z 2918/3018 16013KT P6SM FEW020 SCT250
     FM292100 13010KT P6SM SCT250
     FM300200 12005KT P6SM FEW010 SCT250
      TEMPO 3006/3009 3SM BR BKN010
     FM301100 03015G20KT P6SM BKN020=

USA.gov is the U.S. government's official web portal to all federal, state and local government web resources and services.